createdAt,value
2018-07-06T00:00:24.171Z,9.73
2018-07-06T00:03:03.760Z,10.53
2018-07-06T00:05:43.203Z,8.47
2018-07-06T00:08:22.518Z,8.40
2018-07-06T00:11:01.751Z,8.40
2018-07-06T00:13:41.171Z,8.03
2018-07-06T00:16:20.559Z,8.27
2018-07-06T00:18:59.777Z,9.97
2018-07-06T00:21:38.987Z,8.47
2018-07-06T00:24:12.622Z,10.03
2018-07-06T00:26:52.155Z,9.83
2018-07-06T00:29:31.846Z,9.40
2018-07-06T00:32:11.094Z,8.20
2018-07-06T00:34:50.298Z,8.00
2018-07-06T00:37:29.774Z,7.80
2018-07-06T00:40:09.300Z,10.10
2018-07-06T00:42:48.539Z,9.53
2018-07-06T00:45:27.842Z,7.60
2018-07-06T00:48:07.147Z,9.37
2018-07-06T00:50:40.887Z,7.33
2018-07-06T00:53:20.433Z,7.77
2018-07-06T00:55:59.971Z,7.63
2018-07-06T00:58:39.524Z,9.57
2018-07-06T01:01:19.043Z,7.13
2018-07-06T01:03:58.837Z,8.50
2018-07-06T01:06:38.556Z,8.13
2018-07-06T01:09:18.106Z,7.27
2018-07-06T01:12:02.571Z,7.10
2018-07-06T01:14:41.907Z,9.27
2018-07-06T01:17:21.292Z,7.60
2018-07-06T01:20:01.004Z,7.87
2018-07-06T01:22:40.370Z,7.90
2018-07-06T01:25:19.714Z,7.77
2018-07-06T01:27:58.923Z,7.30
2018-07-06T01:30:38.092Z,7.97
2018-07-06T01:33:17.430Z,6.97
2018-07-06T01:35:56.787Z,8.03
2018-07-06T01:38:36.226Z,8.47
2018-07-06T01:41:15.382Z,9.30
2018-07-06T01:43:54.822Z,8.40
2018-07-06T01:46:34.566Z,7.80
2018-07-06T01:49:13.803Z,11.10
2018-07-06T01:51:53.123Z,8.87
2018-07-06T01:54:32.792Z,8.50
2018-07-06T01:57:12.424Z,10.33
2018-07-06T01:59:51.786Z,8.70
2018-07-06T02:02:31.403Z,8.50
2018-07-06T02:05:05.247Z,9.03
2018-07-06T02:07:44.772Z,8.50
2018-07-06T02:10:23.924Z,8.73
2018-07-06T02:13:03.644Z,9.93
2018-07-06T02:15:43.063Z,8.50
2018-07-06T02:18:22.508Z,8.37
2018-07-06T02:20:56.336Z,8.50
2018-07-06T02:23:35.614Z,9.10
2018-07-06T02:26:15.123Z,9.27
2018-07-06T02:28:54.841Z,8.83
2018-07-06T02:31:34.047Z,8.20
2018-07-06T02:34:13.623Z,8.83
2018-07-06T02:36:53.295Z,9.57
2018-07-06T02:39:32.731Z,10.20
2018-07-06T02:42:12.178Z,8.87
2018-07-06T02:44:51.844Z,8.93
2018-07-06T02:47:31.663Z,9.30
2018-07-06T02:50:11.208Z,8.87
2018-07-06T02:52:50.550Z,10.50
2018-07-06T02:55:29.932Z,9.23
2018-07-06T02:58:09.516Z,9.30
2018-07-06T03:00:49.102Z,9.13
2018-07-06T03:03:28.476Z,8.87
2018-07-06T03:06:07.929Z,9.00
2018-07-06T03:08:41.450Z,9.17
2018-07-06T03:11:25.271Z,8.63
2018-07-06T03:14:04.411Z,10.10
2018-07-06T03:16:45.188Z,8.70
2018-07-06T03:19:24.521Z,9.20
2018-07-06T03:21:58.022Z,8.83
2018-07-06T03:24:31.966Z,9.87
2018-07-06T03:27:11.375Z,9.40
2018-07-06T03:29:51.143Z,9.17
2018-07-06T03:32:30.386Z,8.80
2018-07-06T03:35:09.823Z,8.83
2018-07-06T03:37:49.391Z,9.30
2018-07-06T03:40:29.013Z,9.80
2018-07-06T03:43:08.212Z,9.53
2018-07-06T03:45:41.619Z,8.77
2018-07-06T03:48:15.229Z,9.30
2018-07-06T03:50:54.771Z,8.90
2018-07-06T03:53:34.188Z,8.63
2018-07-06T03:56:13.651Z,10.73
2018-07-06T03:58:52.955Z,8.93
2018-07-06T04:01:32.326Z,8.80
2018-07-06T04:04:11.883Z,9.33
2018-07-06T04:06:52.174Z,8.90
2018-07-06T04:09:31.893Z,8.80
2018-07-06T04:12:11.329Z,7.97
2018-07-06T04:14:51.367Z,8.10
2018-07-06T04:17:30.844Z,9.93
2018-07-06T04:20:10.274Z,8.77
2018-07-06T04:22:49.433Z,8.10
2018-07-06T04:25:28.926Z,7.63
2018-07-06T04:28:08.575Z,8.33
2018-07-06T04:30:48.023Z,8.77
2018-07-06T04:33:27.562Z,8.30
2018-07-06T04:36:01.311Z,8.20
2018-07-06T04:38:40.709Z,8.27
2018-07-06T04:41:20.364Z,8.83
2018-07-06T04:43:59.802Z,9.23
2018-07-06T04:46:39.461Z,8.17
2018-07-06T04:49:18.994Z,9.10
2018-07-06T04:51:59.275Z,8.63
2018-07-06T04:54:38.562Z,8.70
2018-07-06T04:57:17.712Z,8.43
2018-07-06T04:59:57.391Z,8.83
2018-07-06T05:02:36.611Z,9.77
2018-07-06T05:05:15.986Z,9.00
2018-07-06T05:07:55.419Z,8.90
2018-07-06T05:10:35.040Z,9.27
2018-07-06T05:13:14.461Z,8.63
2018-07-06T05:15:54.130Z,8.97
2018-07-06T05:18:33.654Z,8.93
2018-07-06T05:21:13.028Z,8.13
2018-07-06T05:23:52.730Z,8.77
2018-07-06T05:26:32.203Z,9.57
2018-07-06T05:29:11.510Z,9.30
2018-07-06T05:31:51.108Z,9.80
2018-07-06T05:34:30.813Z,10.20
2018-07-06T05:37:10.359Z,12.10
2018-07-06T05:39:49.997Z,12.00
2018-07-06T05:42:29.546Z,11.47
2018-07-06T05:45:08.970Z,9.30
2018-07-06T05:47:48.690Z,9.37
2018-07-06T05:50:28.412Z,10.73
2018-07-06T05:53:07.924Z,9.90
2018-07-06T05:55:47.223Z,10.57
2018-07-06T05:58:26.812Z,9.90
2018-07-06T06:01:06.258Z,10.20
2018-07-06T06:03:46.027Z,10.60
2018-07-06T06:06:25.347Z,11.50
2018-07-06T06:08:52.449Z,16.57
2018-07-06T06:11:20.947Z,14.77
2018-07-06T06:13:49.423Z,11.07
2018-07-06T06:16:17.964Z,11.10
2018-07-06T06:18:46.445Z,12.47
2018-07-06T06:21:15.120Z,12.40
2018-07-06T06:23:43.456Z,11.70
2018-07-06T06:26:11.975Z,14.10
2018-07-06T06:28:40.685Z,11.00
2018-07-06T06:31:09.551Z,12.40
2018-07-06T06:33:38.388Z,13.97
2018-07-06T06:36:06.830Z,12.07
2018-07-06T06:38:35.324Z,13.27
2018-07-06T06:41:03.686Z,14.60
2018-07-06T06:43:32.282Z,13.00
2018-07-06T06:46:01.120Z,11.73
2018-07-06T06:48:29.711Z,11.13
2018-07-06T06:50:58.552Z,12.30
2018-07-06T06:53:26.857Z,10.83
2018-07-06T06:55:55.314Z,10.90
2018-07-06T06:58:23.996Z,11.27
2018-07-06T07:00:52.944Z,11.13
2018-07-06T07:03:21.337Z,12.87
2018-07-06T07:05:50.343Z,13.37
2018-07-06T07:08:18.898Z,11.97
2018-07-06T07:10:47.231Z,13.40
2018-07-06T07:13:15.654Z,14.40
2018-07-06T07:15:44.862Z,11.23
2018-07-06T07:18:13.368Z,10.63
2018-07-06T07:20:41.882Z,14.37
2018-07-06T07:23:10.470Z,12.27
2018-07-06T07:25:39.056Z,10.50
2018-07-06T07:28:07.632Z,13.30
2018-07-06T07:30:36.494Z,10.40
2018-07-06T07:33:05.251Z,11.73
2018-07-06T07:35:34.222Z,13.63
2018-07-06T07:38:03.110Z,10.57
2018-07-06T07:40:32.003Z,11.07
2018-07-06T07:43:00.706Z,12.23
2018-07-06T07:45:30.135Z,13.53
2018-07-06T07:47:58.746Z,13.23
2018-07-06T07:50:27.304Z,12.83
2018-07-06T07:53:06.892Z,14.07
2018-07-06T07:55:35.515Z,11.57
2018-07-06T07:58:04.388Z,11.03
2018-07-06T08:00:33.408Z,11.07
2018-07-06T08:03:01.932Z,11.43
2018-07-06T08:05:30.492Z,10.23
2018-07-06T08:07:59.338Z,12.10
2018-07-06T08:10:28.058Z,10.33
2018-07-06T08:12:56.524Z,11.50
2018-07-06T08:15:30.880Z,12.57
2018-07-06T08:17:59.631Z,11.47
2018-07-06T08:20:28.955Z,11.40
2018-07-06T08:22:57.364Z,12.50
2018-07-06T08:25:26.319Z,14.17
2018-07-06T08:27:55.293Z,12.07
2018-07-06T08:30:23.793Z,9.87
2018-07-06T08:32:52.248Z,10.50
2018-07-06T08:35:31.779Z,9.63
2018-07-06T08:38:05.371Z,10.87
2018-07-06T08:40:34.016Z,11.33
2018-07-06T08:43:03.751Z,10.43
2018-07-06T08:45:33.119Z,9.67
2018-07-06T08:48:01.817Z,9.60
2018-07-06T08:50:30.522Z,12.13
2018-07-06T08:52:58.923Z,9.60
2018-07-06T08:55:28.194Z,12.70
2018-07-06T08:57:57.403Z,11.27
2018-07-06T09:00:25.876Z,10.00
2018-07-06T09:02:54.204Z,9.53
2018-07-06T09:05:22.607Z,8.73
2018-07-06T09:07:51.040Z,9.63
2018-07-06T09:10:19.906Z,10.27
2018-07-06T09:12:48.579Z,8.70
2018-07-06T09:15:40.735Z,7.13
2018-07-06T09:18:09.188Z,9.00
2018-07-06T09:20:37.695Z,9.23
2018-07-06T09:23:06.726Z,7.30
2018-07-06T09:25:35.397Z,9.17
2018-07-06T09:28:04.189Z,7.33
2018-07-06T09:30:32.703Z,6.87
2018-07-06T09:33:01.490Z,9.87
2018-07-06T09:35:29.893Z,11.07
2018-07-06T09:37:58.220Z,11.77
2018-07-06T09:40:27.323Z,7.83
2018-07-06T09:42:56.132Z,8.67
2018-07-06T09:45:24.898Z,8.47
2018-07-06T09:47:53.477Z,7.50
2018-07-06T09:50:22.182Z,8.57
2018-07-06T09:52:50.680Z,10.80
2018-07-06T09:55:19.145Z,6.90
2018-07-06T09:57:47.485Z,7.20
2018-07-06T10:00:21.658Z,9.37
2018-07-06T10:02:50.429Z,6.40
2018-07-06T10:05:18.914Z,7.60
2018-07-06T10:07:47.418Z,7.50
2018-07-06T10:10:15.931Z,6.90
2018-07-06T10:12:44.662Z,8.97
2018-07-06T10:15:53.998Z,6.00
2018-07-06T10:18:22.518Z,7.30
2018-07-06T10:20:51.287Z,9.73
2018-07-06T10:23:19.767Z,5.10
2018-07-06T10:25:48.401Z,4.07
2018-07-06T10:30:29.694Z,8.23
2018-07-06T10:32:58.326Z,7.57
2018-07-06T10:35:26.984Z,7.20
2018-07-06T10:37:55.294Z,4.00
2018-07-06T10:40:23.916Z,4.13
2018-07-06T10:42:52.668Z,5.40
2018-07-06T10:45:21.346Z,6.30
2018-07-06T10:47:49.859Z,3.73
2018-07-06T10:50:18.127Z,5.20
2018-07-06T10:52:46.925Z,5.43
2018-07-06T10:55:15.695Z,6.47
2018-07-06T10:57:44.698Z,4.50
2018-07-06T11:00:13.115Z,4.60
2018-07-06T11:02:41.646Z,8.20
2018-07-06T11:05:10.493Z,4.33
2018-07-06T11:07:39.089Z,6.90
2018-07-06T11:10:07.949Z,7.93
2018-07-06T11:12:36.618Z,4.80
2018-07-06T11:15:33.920Z,6.03
2018-07-06T11:18:02.684Z,4.60
2018-07-06T11:20:31.519Z,5.50
2018-07-06T11:22:59.984Z,8.20
2018-07-06T11:25:28.560Z,6.00
2018-07-06T11:31:28.071Z,6.37
2018-07-06T11:33:56.638Z,7.03
2018-07-06T11:36:25.050Z,8.87
2018-07-06T11:38:53.757Z,8.57
2018-07-06T11:41:22.125Z,10.37
2018-07-06T11:43:50.799Z,5.47
2018-07-06T11:46:19.182Z,8.97
2018-07-06T11:48:47.606Z,5.73
2018-07-06T11:51:16.102Z,9.57
2018-07-06T11:53:44.795Z,6.30
2018-07-06T11:56:13.296Z,8.37
2018-07-06T11:58:42.134Z,7.15
2018-07-06T12:01:11.339Z,5.25
2018-07-06T12:03:39.751Z,6.57
2018-07-06T12:06:08.307Z,9.30
2018-07-06T12:08:36.793Z,4.28
2018-07-06T12:11:05.650Z,7.78
2018-07-06T12:13:34.063Z,6.45
2018-07-06T12:16:23.914Z,4.83
2018-07-06T12:18:52.594Z,8.80
2018-07-06T12:21:21.145Z,2.87
2018-07-06T12:23:49.394Z,6.60
2018-07-06T12:26:18.155Z,4.55
2018-07-06T12:28:46.656Z,9.00
2018-07-06T12:31:15.488Z,8.47
2018-07-06T12:33:43.985Z,3.47
2018-07-06T12:36:12.739Z,3.70
2018-07-06T12:38:41.120Z,5.27
2018-07-06T12:41:09.629Z,2.80
2018-07-06T12:43:38.095Z,2.00
2018-07-06T12:46:06.856Z,2.53
2018-07-06T12:48:35.341Z,2.60
2018-07-06T12:51:03.841Z,1.70
2018-07-06T12:53:32.310Z,2.50
2018-07-06T12:56:00.972Z,2.63
2018-07-06T12:58:29.782Z,2.30
2018-07-06T13:00:58.336Z,1.60
2018-07-06T13:03:26.840Z,2.37
2018-07-06T13:05:55.873Z,1.72
2018-07-06T13:08:24.649Z,2.30
2018-07-06T13:10:53.435Z,2.45
2018-07-06T13:13:22.346Z,2.67
2018-07-06T13:19:13.623Z,2.02
2018-07-06T13:21:42.393Z,1.82
2018-07-06T13:24:11.268Z,1.40
2018-07-06T13:26:39.700Z,1.40
2018-07-06T13:29:08.236Z,1.65
2018-07-06T13:31:37.131Z,2.80
2018-07-06T13:34:05.614Z,1.95
2018-07-06T13:36:34.427Z,2.33
2018-07-06T13:39:03.516Z,3.00
2018-07-06T13:41:31.984Z,1.82
2018-07-06T13:44:00.530Z,2.47
2018-07-06T13:46:28.993Z,3.02
2018-07-06T13:48:57.893Z,3.17
2018-07-06T13:51:26.332Z,3.02
2018-07-06T13:53:55.244Z,4.95
2018-07-06T13:56:23.612Z,3.65
2018-07-06T13:58:52.107Z,3.55
2018-07-06T14:01:20.774Z,4.20
2018-07-06T14:03:49.324Z,3.70
2018-07-06T14:06:18.250Z,2.75
2018-07-06T14:08:47.150Z,4.28
2018-07-06T14:11:23.431Z,2.87
2018-07-06T14:13:52.293Z,3.98
2018-07-06T14:16:48.542Z,3.45
2018-07-06T14:19:16.954Z,4.08
2018-07-06T14:21:45.428Z,4.37
2018-07-06T14:24:14.037Z,4.28
2018-07-06T14:26:42.574Z,4.47
2018-07-06T14:29:11.500Z,4.90
2018-07-06T14:31:40.258Z,3.12
2018-07-06T14:34:09.153Z,3.00
2018-07-06T14:36:37.681Z,2.65
2018-07-06T14:39:07.002Z,2.55
2018-07-06T14:41:35.465Z,5.20
2018-07-06T14:44:03.803Z,5.75
2018-07-06T14:46:32.289Z,3.27
2018-07-06T14:49:00.760Z,4.92
2018-07-06T14:51:29.165Z,5.25
2018-07-06T14:53:58.250Z,4.47
2018-07-06T14:56:26.785Z,3.35
2018-07-06T14:58:55.292Z,6.92
2018-07-06T15:01:24.240Z,6.30
2018-07-06T15:03:53.132Z,4.30
2018-07-06T15:06:21.896Z,3.87
2018-07-06T15:08:50.634Z,3.45
2018-07-06T15:11:27.014Z,4.22
2018-07-06T15:13:55.796Z,8.13
2018-07-06T15:16:54.823Z,3.20
2018-07-06T15:19:23.544Z,5.83
2018-07-06T15:21:51.993Z,4.53
2018-07-06T15:24:20.721Z,4.72
2018-07-06T15:26:50.776Z,4.75
2018-07-06T15:29:19.326Z,5.78
2018-07-06T15:31:49.093Z,6.45
2018-07-06T15:34:17.649Z,5.37
2018-07-06T15:36:46.201Z,4.10
2018-07-06T15:39:15.299Z,5.17
2018-07-06T15:41:43.775Z,4.97
2018-07-06T15:44:12.317Z,4.17
2018-07-06T15:46:41.134Z,5.70
2018-07-06T15:49:09.677Z,5.07
2018-07-06T15:51:38.144Z,3.97
2018-07-06T15:54:06.614Z,6.80
2018-07-06T15:56:35.291Z,5.70
2018-07-06T15:59:03.953Z,5.53
2018-07-06T16:01:32.849Z,4.67
2018-07-06T16:04:01.480Z,4.50
2018-07-06T16:06:30.330Z,4.97
2018-07-06T16:08:59.130Z,3.83
2018-07-06T16:11:30.296Z,3.85
2018-07-06T16:13:59.133Z,4.37
2018-07-06T16:17:09.100Z,4.63
2018-07-06T16:19:37.538Z,6.03
2018-07-06T16:22:06.625Z,4.35
2018-07-06T16:24:35.513Z,4.30
2018-07-06T16:27:03.901Z,7.45
2018-07-06T16:29:32.657Z,4.10
2018-07-06T16:32:01.436Z,5.53
2018-07-06T16:34:29.972Z,4.10
2018-07-06T16:36:58.833Z,6.33
2018-07-06T16:39:27.622Z,4.10
2018-07-06T16:41:56.072Z,6.13
2018-07-06T16:44:24.562Z,5.73
2018-07-06T16:46:53.004Z,3.92
2018-07-06T16:49:21.568Z,5.95
2018-07-06T16:51:51.243Z,4.80
2018-07-06T16:54:19.695Z,4.20
2018-07-06T16:56:49.457Z,5.60
2018-07-06T16:59:18.340Z,3.90
2018-07-06T17:01:48.336Z,4.67
2018-07-06T17:04:17.082Z,3.75
2018-07-06T17:06:45.898Z,5.17
2018-07-06T17:09:14.411Z,4.37
2018-07-06T17:11:42.894Z,3.10
2018-07-06T17:14:11.733Z,4.97
2018-07-06T17:17:19.804Z,5.30
2018-07-06T17:19:48.652Z,4.97
2018-07-06T17:22:17.428Z,4.03
2018-07-06T17:24:45.770Z,6.40
2018-07-06T17:27:14.313Z,4.13
2018-07-06T17:29:43.113Z,4.07
2018-07-06T17:32:11.608Z,5.03
2018-07-06T17:34:40.208Z,5.20
2018-07-06T17:37:08.921Z,5.20
2018-07-06T17:39:37.940Z,4.10
2018-07-06T17:42:06.765Z,8.63
2018-07-06T17:44:35.643Z,6.20
2018-07-06T17:47:04.661Z,4.30
2018-07-06T17:49:33.439Z,4.40
2018-07-06T17:52:02.153Z,4.50
2018-07-06T17:54:31.305Z,4.63
2018-07-06T17:57:00.148Z,3.97
2018-07-06T17:59:29.390Z,6.80
2018-07-06T18:01:58.198Z,5.13
2018-07-06T18:04:27.023Z,6.13
2018-07-06T18:06:55.768Z,5.30
2018-07-06T18:09:24.538Z,6.17
2018-07-06T18:11:53.537Z,4.83
2018-07-06T18:14:45.228Z,3.53
2018-07-06T18:17:27.789Z,6.63
2018-07-06T18:19:56.720Z,7.00
2018-07-06T18:22:25.431Z,5.77
2018-07-06T18:24:54.779Z,5.73
2018-07-06T18:27:23.716Z,4.63
2018-07-06T18:29:52.711Z,4.60
2018-07-06T18:32:22.525Z,6.23
2018-07-06T18:34:51.782Z,5.13
2018-07-06T18:37:21.701Z,4.27
2018-07-06T18:39:50.697Z,5.43
2018-07-06T18:42:19.668Z,5.13
2018-07-06T18:44:48.875Z,5.63
2018-07-06T18:47:17.963Z,5.20
2018-07-06T18:49:46.724Z,3.97
2018-07-06T18:52:15.441Z,5.03
2018-07-06T18:54:44.030Z,6.60
2018-07-06T18:57:13.513Z,4.90
2018-07-06T18:59:42.614Z,6.33
2018-07-06T19:02:12.433Z,5.33
2018-07-06T19:04:42.437Z,4.10
2018-07-06T19:07:12.357Z,4.10
2018-07-06T19:09:41.596Z,4.13
2018-07-06T19:12:11.401Z,4.40
2018-07-06T19:15:29.973Z,4.63
2018-07-06T19:17:59.245Z,5.53
2018-07-06T19:20:28.952Z,4.03
2018-07-06T19:22:58.164Z,4.33
2018-07-06T19:25:27.808Z,3.93
2018-07-06T19:27:56.968Z,6.07
2018-07-06T19:30:27.377Z,5.67
2018-07-06T19:32:56.683Z,5.40
2018-07-06T19:35:26.024Z,3.30
2018-07-06T19:37:55.845Z,4.73
2018-07-06T19:40:25.260Z,4.30
2018-07-06T19:42:54.504Z,4.60
2018-07-06T19:45:23.861Z,3.47
2018-07-06T19:47:53.684Z,5.03
2018-07-06T19:50:24.074Z,3.37
2018-07-06T19:52:53.368Z,5.47
2018-07-06T19:55:22.780Z,5.37
2018-07-06T19:57:52.848Z,4.47
2018-07-06T20:00:22.176Z,6.27
2018-07-06T20:02:51.344Z,5.93
2018-07-06T20:05:21.307Z,4.87
2018-07-06T20:07:50.808Z,5.23
2018-07-06T20:10:19.935Z,5.83
2018-07-06T20:12:49.720Z,3.87
2018-07-06T20:16:04.238Z,4.00
2018-07-06T20:18:33.878Z,3.90
2018-07-06T20:25:08.488Z,5.43
2018-07-06T20:28:25.273Z,6.37
2018-07-06T20:30:55.508Z,4.87
2018-07-06T20:33:24.760Z,4.37
2018-07-06T20:35:54.431Z,6.83
2018-07-06T20:38:24.283Z,7.33
2018-07-06T20:40:54.301Z,5.50
2018-07-06T20:43:24.473Z,5.40
2018-07-06T20:45:54.216Z,4.80
2018-07-06T20:48:24.448Z,5.50
2018-07-06T20:50:54.155Z,3.77
2018-07-06T20:53:23.426Z,4.73
2018-07-06T20:55:52.593Z,5.87
2018-07-06T20:58:21.964Z,3.37
2018-07-06T21:00:51.608Z,3.63
2018-07-06T21:03:21.302Z,6.13
2018-07-06T21:05:50.765Z,3.37
2018-07-06T21:08:20.533Z,3.60
2018-07-06T21:10:49.620Z,3.93
2018-07-06T21:13:18.500Z,3.57
2018-07-06T21:19:09.357Z,4.20
2018-07-06T21:21:38.351Z,4.43
2018-07-06T21:24:06.906Z,3.73
2018-07-06T21:26:35.327Z,4.43
2018-07-06T21:29:04.098Z,3.80
2018-07-06T21:31:33.093Z,6.07
2018-07-06T21:34:01.764Z,4.30
2018-07-06T21:36:30.474Z,4.13
2018-07-06T21:38:58.937Z,3.30
2018-07-06T21:41:27.540Z,4.87
2018-07-06T21:43:55.985Z,2.93
2018-07-06T21:46:24.737Z,4.90
2018-07-06T21:48:53.214Z,4.13
2018-07-06T21:51:21.809Z,6.03
2018-07-06T21:53:50.265Z,5.50
2018-07-06T21:56:18.730Z,5.90
2018-07-06T21:58:47.309Z,4.57
2018-07-06T22:01:16.157Z,4.27
2018-07-06T22:03:44.585Z,5.07
2018-07-06T22:06:12.932Z,5.10
2018-07-06T22:08:41.470Z,4.50
2018-07-06T22:11:10.162Z,4.33
2018-07-06T22:13:39.033Z,4.10
2018-07-06T22:16:07.662Z,4.03
2018-07-06T22:18:36.466Z,6.43
2018-07-06T22:21:05.088Z,3.57
2018-07-06T22:23:33.598Z,4.70
2018-07-06T22:26:02.284Z,4.63
2018-07-06T22:28:30.692Z,4.20
2018-07-06T22:30:59.496Z,5.43
2018-07-06T22:33:28.116Z,9.10
2018-07-06T22:35:56.596Z,4.70
2018-07-06T22:38:25.419Z,4.37
2018-07-06T22:40:54.317Z,6.90
2018-07-06T22:43:22.703Z,6.13
2018-07-06T22:45:51.137Z,5.30
2018-07-06T22:48:19.768Z,4.60
2018-07-06T22:50:48.699Z,5.63
2018-07-06T22:53:17.534Z,5.97
2018-07-06T22:55:46.446Z,6.20
2018-07-06T22:58:15.175Z,5.07
2018-07-06T23:00:43.935Z,5.27
2018-07-06T23:03:12.905Z,4.00
2018-07-06T23:05:41.533Z,4.77
2018-07-06T23:08:10.420Z,4.33
2018-07-06T23:10:39.058Z,5.73
2018-07-06T23:13:07.856Z,5.30
2018-07-06T23:15:36.692Z,4.43
2018-07-06T23:18:05.332Z,5.43
2018-07-06T23:20:34.252Z,4.57
2018-07-06T23:23:08.673Z,5.73
2018-07-06T23:25:45.452Z,4.87
2018-07-06T23:28:14.529Z,5.27
2018-07-06T23:30:43.543Z,6.63
2018-07-06T23:33:12.709Z,4.73
2018-07-06T23:35:41.537Z,4.50
2018-07-06T23:38:10.285Z,4.93
2018-07-06T23:40:39.232Z,4.40
2018-07-06T23:43:08.019Z,4.27
2018-07-06T23:45:36.881Z,6.60
2018-07-06T23:48:05.530Z,5.83
2018-07-06T23:50:34.069Z,4.47
2018-07-06T23:53:02.968Z,6.70
2018-07-06T23:55:31.633Z,4.13
2018-07-06T23:58:00.108Z,5.30
